createdAt,value
2023-04-28T00:00:36.597Z,2.78
2023-04-28T00:01:39.349Z,2.75
2023-04-28T00:02:41.615Z,2.72
2023-04-28T00:03:44.726Z,2.69
2023-04-28T00:04:47.655Z,2.71
2023-04-28T00:05:50.656Z,2.70
2023-04-28T00:06:52.515Z,2.71
2023-04-28T00:07:56.609Z,2.70
2023-04-28T00:08:58.465Z,2.69
2023-04-28T00:10:01.214Z,2.71
2023-04-28T00:11:03.051Z,2.73
2023-04-28T00:12:06.636Z,2.75
2023-04-28T00:13:08.440Z,2.78
2023-04-28T00:14:11.177Z,2.79
2023-04-28T00:15:16.967Z,2.81
2023-04-28T00:16:19.797Z,2.82
2023-04-28T00:17:21.690Z,2.81
2023-04-28T00:18:24.500Z,2.78
2023-04-28T00:19:26.336Z,2.75
2023-04-28T00:20:29.096Z,2.73
2023-04-28T00:21:32.060Z,2.71
2023-04-28T00:22:35.026Z,2.68
2023-04-28T00:23:38.185Z,2.66
2023-04-28T00:24:41.850Z,2.65
2023-04-28T00:25:43.655Z,2.62
2023-04-28T00:26:46.385Z,2.59
2023-04-28T00:27:48.250Z,2.58
2023-04-28T00:28:51.096Z,2.57
2023-04-28T00:29:53.727Z,2.57
2023-04-28T00:30:56.489Z,2.58
2023-04-28T00:31:58.361Z,2.58
2023-04-28T00:33:01.232Z,2.59
2023-04-28T00:34:03.093Z,2.60
2023-04-28T00:35:06.999Z,2.61
2023-04-28T00:36:09.771Z,2.64
2023-04-28T00:37:12.895Z,2.65
2023-04-28T00:38:14.778Z,2.64
2023-04-28T00:39:19.388Z,2.64
2023-04-28T00:40:21.491Z,2.63
2023-04-28T00:41:24.419Z,2.61
2023-04-28T00:42:26.325Z,2.60
2023-04-28T00:43:29.072Z,2.58
2023-04-28T00:44:30.875Z,2.56
2023-04-28T00:45:33.844Z,2.55
2023-04-28T00:46:35.813Z,2.52
2023-04-28T00:47:39.071Z,2.47
2023-04-28T00:48:40.975Z,2.39
2023-04-28T00:49:43.745Z,2.34
2023-04-28T00:50:46.335Z,2.32
2023-04-28T00:51:49.060Z,2.31
2023-04-28T00:52:51.520Z,2.32
2023-04-28T00:53:54.340Z,2.33
2023-04-28T00:54:57.644Z,2.32
2023-04-28T00:56:01.107Z,2.35
2023-04-28T00:57:03.193Z,2.36
2023-04-28T00:58:06.334Z,2.37
2023-04-28T00:59:08.735Z,2.37
2023-04-28T01:00:12.372Z,2.39
2023-04-28T01:01:14.222Z,2.38
2023-04-28T01:02:18.378Z,2.37
2023-04-28T01:03:20.549Z,2.37
2023-04-28T01:04:24.115Z,2.34
2023-04-28T01:05:26.622Z,2.29
2023-04-28T01:06:30.848Z,2.25
2023-04-28T01:07:35.123Z,2.18
2023-04-28T01:08:40.105Z,2.16
2023-04-28T01:09:48.958Z,2.12
2023-04-28T01:10:56.750Z,2.09
2023-04-28T01:12:19.447Z,2.02
2023-04-28T01:13:27.354Z,1.95
2023-04-28T01:14:30.101Z,1.90
2023-04-28T01:15:32.073Z,1.87
2023-04-28T01:16:35.329Z,1.86
2023-04-28T01:17:37.936Z,1.85
2023-04-28T01:18:44.185Z,1.87
2023-04-28T01:19:46.090Z,1.86
2023-04-28T01:20:48.921Z,1.84
2023-04-28T01:21:51.014Z,1.82
2023-04-28T01:22:58.081Z,1.79
2023-04-28T01:24:01.678Z,1.78
2023-04-28T01:25:05.118Z,1.75
2023-04-28T01:26:07.452Z,1.75
2023-04-28T01:27:10.259Z,1.76
2023-04-28T01:28:13.744Z,1.77
2023-04-28T01:29:16.556Z,1.75
2023-04-28T01:30:18.666Z,1.75
2023-04-28T01:31:21.529Z,1.74
2023-04-28T01:32:23.473Z,1.74
2023-04-28T01:33:26.306Z,1.74
2023-04-28T01:34:28.051Z,1.74
2023-04-28T01:35:31.148Z,1.74
2023-04-28T01:36:35.305Z,1.72
2023-04-28T01:37:40.065Z,1.69
2023-04-28T01:38:41.968Z,1.65
2023-04-28T01:39:46.036Z,1.59
2023-04-28T01:40:47.819Z,1.58
2023-04-28T01:41:50.624Z,1.57
2023-04-28T01:42:52.620Z,1.56
2023-04-28T01:43:55.398Z,1.56
2023-04-28T01:44:57.249Z,1.55
2023-04-28T01:46:00.022Z,1.54
2023-04-28T01:47:01.863Z,1.51
2023-04-28T01:48:04.883Z,1.51
2023-04-28T01:49:06.740Z,1.49
2023-04-28T01:50:10.579Z,1.50
2023-04-28T01:51:12.338Z,1.48
2023-04-28T01:52:15.155Z,1.47
2023-04-28T01:53:20.586Z,1.47
2023-04-28T01:54:23.942Z,1.44
2023-04-28T01:55:27.294Z,1.44
2023-04-28T01:56:30.504Z,1.43
2023-04-28T01:57:35.415Z,1.39
2023-04-28T01:58:38.444Z,1.36
2023-04-28T01:59:41.364Z,1.34
2023-04-28T02:00:44.183Z,1.30
2023-04-28T02:01:46.309Z,1.30
2023-04-28T02:02:49.169Z,1.30
2023-04-28T02:03:52.092Z,1.29
2023-04-28T02:04:55.187Z,1.28
2023-04-28T02:05:57.144Z,1.27
2023-04-28T02:07:00.013Z,1.26
2023-04-28T02:08:01.983Z,1.24
2023-04-28T02:09:05.712Z,1.23
2023-04-28T02:10:10.132Z,1.22
2023-04-28T02:11:14.421Z,1.18
2023-04-28T02:12:17.417Z,1.14
2023-04-28T02:13:20.209Z,1.10
2023-04-28T02:14:22.078Z,1.07
2023-04-28T02:15:24.926Z,1.05
2023-04-28T02:16:28.498Z,1.04
2023-04-28T02:17:31.376Z,1.01
2023-04-28T02:18:33.209Z,1.01
2023-04-28T02:19:36.385Z,1.01
2023-04-28T02:20:38.548Z,1.00
2023-04-28T02:21:44.026Z,0.99
2023-04-28T02:22:45.850Z,0.99
2023-04-28T02:23:48.677Z,0.98
2023-04-28T02:24:50.693Z,0.96
2023-04-28T02:26:01.812Z,0.94
2023-04-28T02:27:05.665Z,0.92
2023-04-28T02:28:08.435Z,0.90
2023-04-28T02:29:10.260Z,0.88
2023-04-28T02:30:13.747Z,0.86
2023-04-28T02:31:15.611Z,0.82
2023-04-28T02:32:18.353Z,0.79
2023-04-28T02:33:20.160Z,0.76
2023-04-28T02:34:22.916Z,0.70
2023-04-28T02:35:24.767Z,0.66
2023-04-28T02:36:28.558Z,0.58
2023-04-28T02:37:30.447Z,0.50
2023-04-28T02:38:33.435Z,0.44
2023-04-28T02:39:35.531Z,0.40
2023-04-28T02:40:38.373Z,0.37
2023-04-28T02:41:40.166Z,0.36
2023-04-28T02:42:46.195Z,0.33
2023-04-28T02:43:48.028Z,0.29
2023-04-28T02:44:50.786Z,0.27
2023-04-28T02:45:52.902Z,0.26
2023-04-28T02:46:55.785Z,0.26
2023-04-28T02:48:03.513Z,0.25
2023-04-28T02:49:06.381Z,0.28
2023-04-28T02:50:09.378Z,0.30
2023-04-28T02:51:14.080Z,0.33
2023-04-28T02:52:16.303Z,0.33
2023-04-28T02:53:19.160Z,0.33
2023-04-28T02:54:27.481Z,0.33
2023-04-28T02:55:32.143Z,0.29
2023-04-28T02:56:35.445Z,0.24
2023-04-28T02:57:39.054Z,0.20
2023-04-28T02:58:42.351Z,0.14
2023-04-28T02:59:45.099Z,0.11
2023-04-28T03:00:47.248Z,0.07
2023-04-28T03:01:51.727Z,0.02
2023-04-28T03:02:53.717Z,-0.00
2023-04-28T03:03:56.907Z,-0.03
2023-04-28T03:04:59.026Z,-0.05
2023-04-28T03:06:01.823Z,-0.10
2023-04-28T03:07:03.668Z,-0.14
2023-04-28T03:08:07.522Z,-0.18
2023-04-28T03:09:09.986Z,-0.23
2023-04-28T03:10:12.911Z,-0.27
2023-04-28T03:11:14.863Z,-0.32
2023-04-28T03:12:17.689Z,-0.36
2023-04-28T03:13:21.600Z,-0.39
2023-04-28T03:14:26.856Z,-0.41
2023-04-28T03:15:29.722Z,-0.46
2023-04-28T03:16:33.611Z,-0.51
2023-04-28T03:17:36.635Z,-0.55
2023-04-28T03:18:39.436Z,-0.60
2023-04-28T03:19:41.318Z,-0.63
2023-04-28T03:20:44.236Z,-0.69
2023-04-28T03:21:46.237Z,-0.75
2023-04-28T03:22:50.977Z,-0.83
2023-04-28T03:23:53.622Z,-0.88
2023-04-28T03:24:56.458Z,-0.92
2023-04-28T03:25:58.688Z,-0.95
2023-04-28T03:27:03.635Z,-1.00
2023-04-28T03:28:05.859Z,-1.04
2023-04-28T03:29:08.618Z,-1.08
2023-04-28T03:30:12.644Z,-1.11
2023-04-28T03:31:15.391Z,-1.13
2023-04-28T03:32:17.317Z,-1.14
2023-04-28T03:33:20.400Z,-1.14
2023-04-28T03:34:22.506Z,-1.15
2023-04-28T03:35:25.504Z,-1.17
2023-04-28T03:36:28.661Z,-1.18
2023-04-28T03:37:34.936Z,-1.20
2023-04-28T03:38:37.840Z,-1.22
2023-04-28T03:39:39.713Z,-1.22
2023-04-28T03:40:42.682Z,-1.22
2023-04-28T03:41:50.113Z,-1.21
2023-04-28T03:43:25.026Z,-1.25
2023-04-28T03:44:43.081Z,-1.27
2023-04-28T03:45:47.483Z,-1.26
2023-04-28T03:46:49.510Z,-1.25
2023-04-28T03:47:52.510Z,-1.25
2023-04-28T03:48:54.393Z,-1.23
2023-04-28T03:49:58.854Z,-1.22
2023-04-28T03:51:00.764Z,-1.20
2023-04-28T03:52:04.368Z,-1.19
2023-04-28T03:53:06.534Z,-1.16
2023-04-28T03:54:09.648Z,-1.11
2023-04-28T03:55:11.936Z,-1.08
2023-04-28T03:56:14.786Z,-0.97
2023-04-28T03:57:16.763Z,-0.87
2023-04-28T03:58:19.701Z,-0.77
2023-04-28T03:59:21.711Z,-0.69
2023-04-28T04:00:25.719Z,-0.62
2023-04-28T04:01:30.613Z,-0.49
2023-04-28T04:02:33.543Z,-0.40
2023-04-28T04:03:35.670Z,-0.34
2023-04-28T04:04:38.779Z,-0.26
2023-04-28T04:05:41.419Z,-0.15
2023-04-28T04:06:44.301Z,-0.04
2023-04-28T04:07:47.032Z,0.09
2023-04-28T04:08:49.868Z,0.22
2023-04-28T04:09:51.821Z,0.37
2023-04-28T04:10:55.854Z,0.51
2023-04-28T04:11:58.808Z,0.65
2023-04-28T04:13:01.783Z,0.79
2023-04-28T04:14:03.614Z,0.90
2023-04-28T04:15:07.820Z,0.99
2023-04-28T04:16:10.087Z,1.08
2023-04-28T04:17:14.274Z,1.18
2023-04-28T04:18:16.383Z,1.26
2023-04-28T04:19:39.509Z,1.38
2023-04-28T04:20:41.280Z,1.47
2023-04-28T04:21:44.086Z,1.52
2023-04-28T04:22:45.945Z,1.57
2023-04-28T04:23:49.853Z,1.64
2023-04-28T04:24:51.711Z,1.71
2023-04-28T04:25:54.494Z,1.78
2023-04-28T04:26:56.273Z,1.83
2023-04-28T04:28:09.594Z,1.86
2023-04-28T04:29:11.408Z,1.89
2023-04-28T04:30:14.523Z,1.92
2023-04-28T04:31:16.346Z,1.97
2023-04-28T04:32:20.861Z,2.04
2023-04-28T04:33:23.366Z,2.13
2023-04-28T04:34:26.280Z,2.18
2023-04-28T04:35:28.506Z,2.23
2023-04-28T04:36:31.571Z,2.28
2023-04-28T04:37:33.936Z,2.30
2023-04-28T04:38:38.286Z,2.34
2023-04-28T04:39:47.931Z,2.39
2023-04-28T04:40:51.644Z,2.49
2023-04-28T04:41:53.482Z,2.58
2023-04-28T04:43:25.415Z,2.64
2023-04-28T04:44:28.012Z,2.66
2023-04-28T04:45:31.925Z,2.72
2023-04-28T04:46:33.797Z,2.81
2023-04-28T04:47:38.015Z,2.92
2023-04-28T04:48:39.839Z,3.04
2023-04-28T04:49:43.015Z,3.17
2023-04-28T04:50:45.021Z,3.29
2023-04-28T04:51:48.261Z,3.44
2023-04-28T04:52:50.148Z,3.59
2023-04-28T04:53:53.897Z,3.68
2023-04-28T04:54:56.450Z,3.76
2023-04-28T04:56:00.539Z,3.80
2023-04-28T04:57:02.552Z,3.85
2023-04-28T04:58:37.830Z,3.90
2023-04-28T04:59:59.868Z,4.01
2023-04-28T05:01:03.332Z,4.17
2023-04-28T05:02:05.161Z,4.35
2023-04-28T05:03:09.893Z,4.50
2023-04-28T05:04:12.167Z,4.64
2023-04-28T05:05:21.476Z,4.79
2023-04-28T05:06:39.622Z,4.98
2023-04-28T05:07:41.518Z,5.11
2023-04-28T05:08:44.866Z,5.22
2023-04-28T05:09:47.075Z,5.33
2023-04-28T05:10:49.855Z,5.44
2023-04-28T05:11:52.069Z,5.57
2023-04-28T05:12:54.893Z,5.70
2023-04-28T05:13:56.671Z,5.82
2023-04-28T05:15:01.227Z,5.92
2023-04-28T05:16:03.610Z,6.05
2023-04-28T05:17:38.530Z,6.25
2023-04-28T05:18:42.185Z,6.35
2023-04-28T05:19:46.935Z,6.38
2023-04-28T05:20:49.736Z,6.37
2023-04-28T05:21:54.947Z,6.34
2023-04-28T05:22:58.363Z,6.34
2023-04-28T05:24:01.157Z,6.32
2023-04-28T05:25:07.210Z,6.34
2023-04-28T05:26:10.282Z,6.34
2023-04-28T05:27:12.080Z,6.36
2023-04-28T05:28:14.990Z,6.37
2023-04-28T05:29:18.466Z,6.38
2023-04-28T05:30:21.416Z,6.44
2023-04-28T05:31:23.819Z,6.48
2023-04-28T05:32:26.985Z,6.54
2023-04-28T05:33:28.802Z,6.68
2023-04-28T05:34:33.018Z,6.83
2023-04-28T05:35:35.968Z,7.04
2023-04-28T05:36:38.976Z,7.27
2023-04-28T05:37:45.083Z,7.55
2023-04-28T05:38:48.271Z,7.75
2023-04-28T05:39:50.090Z,7.95
2023-04-28T05:40:52.975Z,8.16
2023-04-28T05:41:54.787Z,8.35
2023-04-28T05:42:57.808Z,8.54
2023-04-28T05:43:59.685Z,8.71
2023-04-28T05:45:02.684Z,8.87
2023-04-28T05:46:09.732Z,9.10
2023-04-28T05:47:17.949Z,9.38
2023-04-28T05:48:20.069Z,9.60
2023-04-28T05:49:22.932Z,9.78
2023-04-28T05:50:26.057Z,9.90
2023-04-28T05:51:28.876Z,10.00
2023-04-28T05:52:31.199Z,10.10
2023-04-28T05:53:34.062Z,10.14
2023-04-28T05:54:35.898Z,10.25
2023-04-28T05:55:39.550Z,10.40
2023-04-28T05:56:41.336Z,10.61
2023-04-28T05:57:52.452Z,10.79
2023-04-28T05:58:55.998Z,11.03
2023-04-28T05:59:58.879Z,11.22
2023-04-28T06:01:00.714Z,11.38
2023-04-28T06:02:03.553Z,11.54
2023-04-28T06:03:05.614Z,11.70
2023-04-28T06:04:09.227Z,11.88
2023-04-28T06:05:11.663Z,12.01
2023-04-28T06:06:16.512Z,12.05
2023-04-28T06:07:18.371Z,12.14
2023-04-28T06:08:21.155Z,12.19
2023-04-28T06:09:23.010Z,12.25
2023-04-28T06:10:27.009Z,12.29
2023-04-28T06:11:28.947Z,12.37
2023-04-28T06:12:31.744Z,12.50
2023-04-28T06:13:33.519Z,12.64
2023-04-28T06:14:37.755Z,12.76
2023-04-28T06:15:39.680Z,12.93
2023-04-28T06:16:42.563Z,13.02
2023-04-28T06:17:44.457Z,13.08
2023-04-28T06:18:49.621Z,13.09
2023-04-28T06:19:54.335Z,13.07
2023-04-28T06:20:57.211Z,13.07
2023-04-28T06:22:00.373Z,13.19
2023-04-28T06:23:03.312Z,13.29
2023-04-28T06:24:05.646Z,13.43
2023-04-28T06:25:09.769Z,13.56
2023-04-28T06:26:19.358Z,13.64
2023-04-28T06:27:22.130Z,13.72
2023-04-28T06:28:24.587Z,13.78
2023-04-28T06:29:29.240Z,13.74
2023-04-28T06:30:31.425Z,13.79
2023-04-28T06:31:34.416Z,13.88
2023-04-28T06:32:36.271Z,14.00
2023-04-28T06:33:39.040Z,14.10
2023-04-28T06:34:42.245Z,14.09
2023-04-28T06:35:45.032Z,14.11
2023-04-28T06:36:47.319Z,14.10
2023-04-28T06:37:51.479Z,14.09
2023-04-28T06:38:53.262Z,14.06
2023-04-28T06:39:55.969Z,14.05
2023-04-28T06:40:57.805Z,14.07
2023-04-28T06:42:02.349Z,14.11
2023-04-28T06:43:05.685Z,14.14
2023-04-28T06:44:19.393Z,14.18
2023-04-28T06:45:21.670Z,14.25
2023-04-28T06:46:24.614Z,14.32
2023-04-28T06:47:26.701Z,14.40
2023-04-28T06:48:29.761Z,14.45
2023-04-28T06:49:31.537Z,14.53
2023-04-28T06:50:36.727Z,14.59
2023-04-28T06:51:41.363Z,14.64
2023-04-28T06:52:44.121Z,14.65
2023-04-28T06:53:47.316Z,14.67
2023-04-28T06:54:50.890Z,14.71
2023-04-28T06:55:53.011Z,14.76
2023-04-28T06:56:56.626Z,14.77
2023-04-28T06:57:59.685Z,14.81
2023-04-28T06:59:03.200Z,14.88
2023-04-28T07:00:06.475Z,14.93
2023-04-28T07:01:09.306Z,14.94
2023-04-28T07:02:11.403Z,14.97
2023-04-28T07:03:14.404Z,15.04
2023-04-28T07:04:16.796Z,15.07
2023-04-28T07:05:20.132Z,15.13
2023-04-28T07:06:23.046Z,15.16
2023-04-28T07:07:24.818Z,15.15
2023-04-28T07:08:29.801Z,15.15
2023-04-28T07:09:33.933Z,15.15
2023-04-28T07:10:36.851Z,15.19
2023-04-28T07:11:38.679Z,15.26
2023-04-28T07:12:41.439Z,15.28
2023-04-28T07:13:44.233Z,15.36
2023-04-28T07:14:46.512Z,15.51
2023-04-28T07:15:49.459Z,15.56
2023-04-28T07:16:51.225Z,15.60
2023-04-28T07:17:54.072Z,15.63
2023-04-28T07:18:56.298Z,15.73
2023-04-28T07:19:59.031Z,15.85
2023-04-28T07:21:03.402Z,15.96
2023-04-28T07:22:07.157Z,16.01
2023-04-28T07:23:10.165Z,15.96
2023-04-28T07:24:12.000Z,16.00
2023-04-28T07:25:16.321Z,16.12
2023-04-28T07:26:19.042Z,16.15
2023-04-28T07:27:20.822Z,16.14
2023-04-28T07:28:23.695Z,16.10
2023-04-28T07:29:28.821Z,16.04
2023-04-28T07:30:31.949Z,16.04
2023-04-28T07:31:33.837Z,16.09
2023-04-28T07:32:36.892Z,16.17
2023-04-28T07:33:39.624Z,16.22
2023-04-28T07:34:41.564Z,16.24
2023-04-28T07:35:44.387Z,16.33
2023-04-28T07:36:46.294Z,16.33
2023-04-28T07:37:49.243Z,16.34
2023-04-28T07:38:51.049Z,16.38
2023-04-28T07:39:53.881Z,16.50
2023-04-28T07:40:58.209Z,16.57
2023-04-28T07:41:59.982Z,16.67
2023-04-28T07:43:03.704Z,16.78
2023-04-28T07:44:08.149Z,16.85
2023-04-28T07:45:10.808Z,16.87
2023-04-28T07:46:13.767Z,16.88
2023-04-28T07:47:15.621Z,16.94
2023-04-28T07:48:18.500Z,17.02
2023-04-28T07:49:20.519Z,17.11
2023-04-28T07:50:23.492Z,17.13
2023-04-28T07:51:25.507Z,17.14
2023-04-28T07:52:28.521Z,17.12
2023-04-28T07:53:30.382Z,17.05
2023-04-28T07:54:35.108Z,16.94
2023-04-28T07:55:38.820Z,16.93
2023-04-28T07:56:42.992Z,16.93
2023-04-28T07:57:44.880Z,17.03
2023-04-28T07:58:47.982Z,17.03
2023-04-28T07:59:50.889Z,17.05
2023-04-28T08:00:52.783Z,17.09
2023-04-28T08:01:55.642Z,17.06
2023-04-28T08:02:57.877Z,17.02
2023-04-28T08:04:01.285Z,16.93
2023-04-28T08:05:04.112Z,16.76
2023-04-28T08:06:07.898Z,16.60
2023-04-28T08:07:12.515Z,16.47
2023-04-28T08:08:15.313Z,16.42
2023-04-28T08:09:18.085Z,16.49
2023-04-28T08:10:21.290Z,16.61
2023-04-28T08:11:23.201Z,16.69
2023-04-28T08:12:27.279Z,16.70
2023-04-28T08:13:30.741Z,16.77
2023-04-28T08:14:32.540Z,16.78
2023-04-28T08:15:35.353Z,16.71
2023-04-28T08:16:40.306Z,16.55
2023-04-28T08:17:43.181Z,16.34
2023-04-28T08:18:45.893Z,16.22
2023-04-28T08:19:48.977Z,16.04
2023-04-28T08:20:51.797Z,15.86
2023-04-28T08:21:53.558Z,15.74
2023-04-28T08:22:56.264Z,15.66
2023-04-28T08:23:58.112Z,15.70
2023-04-28T08:25:00.877Z,15.72
2023-04-28T08:26:03.635Z,15.74
2023-04-28T08:27:05.486Z,15.86
2023-04-28T08:28:10.072Z,16.03
2023-04-28T08:29:13.137Z,16.17
2023-04-28T08:30:16.250Z,16.41
2023-04-28T08:31:18.065Z,16.60
2023-04-28T08:32:20.859Z,16.75
2023-04-28T08:33:24.090Z,16.94
2023-04-28T08:34:27.552Z,17.03
2023-04-28T08:35:30.948Z,17.16
2023-04-28T08:36:33.762Z,17.30
2023-04-28T08:37:35.875Z,17.56
2023-04-28T08:38:38.696Z,17.69
2023-04-28T08:39:40.490Z,17.75
2023-04-28T08:40:43.673Z,17.80
2023-04-28T08:41:46.417Z,17.93
2023-04-28T08:42:49.510Z,18.08
2023-04-28T08:43:53.606Z,18.12
2023-04-28T08:44:59.486Z,18.01
2023-04-28T08:46:05.889Z,17.99
2023-04-28T08:47:13.387Z,17.94
2023-04-28T08:48:20.913Z,17.96
2023-04-28T08:49:24.788Z,18.11
2023-04-28T08:50:28.709Z,18.24
2023-04-28T08:51:35.285Z,18.42
2023-04-28T08:52:37.097Z,18.60
2023-04-28T08:54:06.202Z,18.82
2023-04-28T08:55:07.512Z,18.99
2023-04-28T08:56:10.771Z,19.10
2023-04-28T08:57:13.914Z,19.07
2023-04-28T08:58:15.721Z,18.97
2023-04-28T08:59:20.039Z,19.02
2023-04-28T09:00:21.828Z,18.95
2023-04-28T09:01:25.103Z,18.86
2023-04-28T09:02:27.205Z,18.79
2023-04-28T09:03:30.236Z,18.71
2023-04-28T09:04:32.311Z,18.75
2023-04-28T09:05:35.369Z,18.89
2023-04-28T09:06:38.390Z,19.08
2023-04-28T09:07:41.706Z,19.01
2023-04-28T09:08:43.754Z,18.96
2023-04-28T09:09:46.574Z,18.89
2023-04-28T09:10:48.528Z,18.78
2023-04-28T09:11:56.447Z,18.70
2023-04-28T09:12:59.254Z,18.80
2023-04-28T09:14:12.635Z,19.00
2023-04-28T09:15:29.502Z,19.16
2023-04-28T09:16:41.381Z,19.29
2023-04-28T09:17:51.049Z,19.27
2023-04-28T09:18:58.025Z,19.24
2023-04-28T09:20:00.133Z,19.24
2023-04-28T09:21:07.423Z,19.17
2023-04-28T09:22:24.974Z,19.10
2023-04-28T09:23:28.730Z,19.11
2023-04-28T09:24:32.002Z,19.22
2023-04-28T09:25:34.785Z,19.27
2023-04-28T09:26:50.609Z,19.39
2023-04-28T09:27:53.800Z,19.50
2023-04-28T09:29:11.678Z,19.72
2023-04-28T09:30:14.593Z,19.73
2023-04-28T09:31:25.945Z,19.72
2023-04-28T09:32:28.657Z,19.65
2023-04-28T09:33:31.759Z,19.65
2023-04-28T09:34:42.883Z,19.67
2023-04-28T09:35:47.758Z,19.83
2023-04-28T09:36:49.703Z,19.84
2023-04-28T09:37:59.503Z,19.98
2023-04-28T09:39:01.927Z,20.05
2023-04-28T09:40:07.628Z,20.16
2023-04-28T09:41:09.517Z,20.24
2023-04-28T09:42:12.447Z,20.43
2023-04-28T09:43:23.512Z,20.59
2023-04-28T09:44:26.751Z,20.58
2023-04-28T09:45:42.495Z,20.59
2023-04-28T09:46:47.473Z,20.67
2023-04-28T09:47:49.801Z,20.62
2023-04-28T09:49:01.995Z,20.44
2023-04-28T09:50:06.148Z,20.27
2023-04-28T09:51:11.614Z,20.14
2023-04-28T09:52:15.210Z,20.06
2023-04-28T09:53:18.810Z,20.02
2023-04-28T09:54:21.982Z,20.12
2023-04-28T09:55:25.604Z,20.05
2023-04-28T09:56:28.216Z,19.95
2023-04-28T09:57:32.448Z,19.86
2023-04-28T09:58:35.334Z,19.79
2023-04-28T09:59:38.607Z,19.84
2023-04-28T10:00:40.979Z,19.98
2023-04-28T10:01:46.576Z,20.13
2023-04-28T10:02:50.088Z,20.16
2023-04-28T10:03:54.401Z,20.22
2023-04-28T10:04:57.255Z,20.27
2023-04-28T10:06:00.683Z,20.49
2023-04-28T10:07:02.696Z,20.57
2023-04-28T10:08:06.350Z,20.63
2023-04-28T10:09:08.511Z,20.74
2023-04-28T10:10:14.698Z,20.85
2023-04-28T10:11:17.274Z,20.93
2023-04-28T10:12:21.328Z,21.06
2023-04-28T10:13:23.703Z,21.10
2023-04-28T10:14:26.671Z,21.17
2023-04-28T10:15:28.669Z,21.09
2023-04-28T10:16:33.148Z,20.98
2023-04-28T10:17:37.074Z,20.93
2023-04-28T10:18:40.411Z,20.97
2023-04-28T10:19:42.588Z,20.94
2023-04-28T10:20:47.447Z,20.84
2023-04-28T10:21:56.968Z,20.63
2023-04-28T10:23:09.279Z,20.48
2023-04-28T10:24:16.538Z,20.33
2023-04-28T10:25:26.504Z,20.35
2023-04-28T10:26:59.031Z,20.43
2023-04-28T10:28:04.773Z,20.14
2023-04-28T10:29:08.242Z,19.88
2023-04-28T10:30:23.086Z,19.69
2023-04-28T10:31:30.708Z,19.52
2023-04-28T10:32:33.392Z,19.72
2023-04-28T10:33:38.900Z,19.93
2023-04-28T10:34:40.913Z,20.14
2023-04-28T10:35:45.264Z,20.20
2023-04-28T10:36:48.226Z,20.31
2023-04-28T10:38:08.200Z,20.38
2023-04-28T10:39:12.847Z,20.27
2023-04-28T10:40:34.526Z,19.95
2023-04-28T10:41:37.743Z,19.86
2023-04-28T10:42:52.684Z,19.97
2023-04-28T10:43:56.091Z,20.10
2023-04-28T10:44:58.643Z,20.22
2023-04-28T10:46:06.407Z,20.16
2023-04-28T10:47:09.935Z,19.92
2023-04-28T10:48:13.044Z,19.70
2023-04-28T10:49:17.309Z,19.48
2023-04-28T10:50:21.956Z,19.29
2023-04-28T10:51:31.951Z,19.32
2023-04-28T10:52:51.368Z,19.22
2023-04-28T10:54:17.256Z,19.26
2023-04-28T10:55:36.411Z,19.35
2023-04-28T10:56:39.830Z,19.39
2023-04-28T10:57:44.369Z,19.49
2023-04-28T10:58:46.957Z,19.40
2023-04-28T10:59:51.340Z,19.20
2023-04-28T11:00:53.289Z,18.86
2023-04-28T11:01:56.351Z,18.55
2023-04-28T11:02:59.719Z,18.31
2023-04-28T11:04:08.415Z,18.20
2023-04-28T11:05:14.785Z,18.43
2023-04-28T11:06:21.489Z,18.81
2023-04-28T11:07:24.577Z,19.23
2023-04-28T11:08:36.684Z,19.79
2023-04-28T11:09:49.874Z,19.97
2023-04-28T11:11:18.394Z,19.75
2023-04-28T11:12:21.737Z,19.41
2023-04-28T11:13:27.501Z,19.08
2023-04-28T11:14:35.011Z,18.81
2023-04-28T11:15:37.759Z,18.60
2023-04-28T11:16:50.402Z,18.59
2023-04-28T11:17:57.731Z,18.80
2023-04-28T11:19:04.738Z,19.24
2023-04-28T11:20:09.516Z,19.76
2023-04-28T11:21:14.647Z,20.19
2023-04-28T11:22:18.861Z,20.57
2023-04-28T11:23:20.955Z,20.84
2023-04-28T11:24:25.556Z,21.05
2023-04-28T11:25:27.450Z,21.26
2023-04-28T11:26:30.531Z,21.48
2023-04-28T11:27:33.945Z,21.65
2023-04-28T11:28:38.038Z,21.81
2023-04-28T11:29:42.835Z,21.94
2023-04-28T11:30:44.629Z,21.98
2023-04-28T11:31:51.257Z,22.20
2023-04-28T11:32:53.210Z,22.36
2023-04-28T11:34:00.300Z,22.47
2023-04-28T11:35:04.300Z,22.62
2023-04-28T11:36:07.140Z,22.72
2023-04-28T11:37:16.681Z,22.77
2023-04-28T11:38:18.596Z,22.79
2023-04-28T11:39:28.479Z,22.95
2023-04-28T11:40:30.366Z,22.92
2023-04-28T11:41:34.328Z,22.85
2023-04-28T11:42:36.070Z,22.88
2023-04-28T11:43:46.879Z,22.94
2023-04-28T11:44:52.295Z,22.93
2023-04-28T11:45:54.295Z,22.84
2023-04-28T11:47:00.629Z,22.74
2023-04-28T11:48:21.027Z,22.60
2023-04-28T11:49:25.311Z,22.43
2023-04-28T11:50:35.883Z,22.30
2023-04-28T11:51:39.712Z,22.34
2023-04-28T11:52:53.189Z,22.40
2023-04-28T11:53:55.802Z,22.34
2023-04-28T11:55:00.797Z,22.17
2023-04-28T11:56:08.032Z,21.84
2023-04-28T11:57:18.211Z,21.58
2023-04-28T11:58:22.357Z,21.44
2023-04-28T11:59:26.978Z,21.22
2023-04-28T12:00:29.745Z,20.95
2023-04-28T12:01:34.044Z,20.65
2023-04-28T12:02:37.027Z,20.57
2023-04-28T12:03:45.819Z,20.85
2023-04-28T12:04:50.630Z,21.27
2023-04-28T12:05:52.601Z,21.58
2023-04-28T12:07:07.841Z,21.86
2023-04-28T12:08:11.316Z,22.02
2023-04-28T12:09:17.998Z,22.14
2023-04-28T12:10:21.903Z,22.33
2023-04-28T12:11:25.638Z,22.52
2023-04-28T12:13:39.034Z,22.66
2023-04-28T12:14:58.075Z,22.53
2023-04-28T12:16:03.655Z,22.52
2023-04-28T12:17:06.403Z,22.63
2023-04-28T12:18:10.645Z,22.81
2023-04-28T12:19:15.162Z,23.13
2023-04-28T12:20:35.757Z,23.43
2023-04-28T12:21:38.874Z,23.40
2023-04-28T12:22:45.837Z,23.27
2023-04-28T12:23:48.944Z,23.15
2023-04-28T12:25:07.990Z,23.07
2023-04-28T12:26:10.099Z,23.11
2023-04-28T12:27:21.588Z,23.23
2023-04-28T12:28:23.417Z,23.35
2023-04-28T12:29:43.078Z,23.50
2023-04-28T12:30:45.418Z,23.57
2023-04-28T12:31:52.692Z,23.56
2023-04-28T12:32:56.052Z,23.60
2023-04-28T12:33:58.994Z,23.60
2023-04-28T12:35:02.113Z,23.54
2023-04-28T12:36:04.630Z,23.50
2023-04-28T12:37:07.778Z,23.60
2023-04-28T12:38:13.904Z,23.81
2023-04-28T12:39:19.776Z,24.14
2023-04-28T12:40:22.945Z,24.62
2023-04-28T12:41:25.366Z,24.83
2023-04-28T12:42:29.224Z,24.97
2023-04-28T12:43:31.277Z,25.08
2023-04-28T12:44:36.519Z,25.15
2023-04-28T12:45:39.022Z,25.10
2023-04-28T12:46:42.032Z,24.85
2023-04-28T12:47:44.075Z,24.46
2023-04-28T12:48:46.919Z,24.05
2023-04-28T12:49:50.755Z,23.79
2023-04-28T12:50:53.554Z,23.63
2023-04-28T12:51:55.507Z,23.55
2023-04-28T12:52:58.571Z,23.53
2023-04-28T12:54:00.575Z,23.52
2023-04-28T12:55:05.013Z,23.47
2023-04-28T12:56:06.905Z,23.43
2023-04-28T12:57:09.659Z,23.38
2023-04-28T12:58:11.538Z,23.33
2023-04-28T12:59:14.269Z,23.39
2023-04-28T13:00:16.386Z,23.44
2023-04-28T13:01:19.258Z,23.51
2023-04-28T13:02:21.213Z,23.72
2023-04-28T13:03:24.159Z,23.88
2023-04-28T13:04:27.409Z,24.15
2023-04-28T13:05:29.923Z,24.41
2023-04-28T13:06:32.925Z,24.62
2023-04-28T13:07:35.810Z,24.64
2023-04-28T13:08:37.596Z,24.56
2023-04-28T13:09:41.316Z,24.26
2023-04-28T13:10:45.596Z,24.08
2023-04-28T13:11:48.334Z,24.04
2023-04-28T13:12:50.113Z,24.26
2023-04-28T13:13:53.271Z,24.46
2023-04-28T13:14:55.022Z,24.33
2023-04-28T13:15:57.762Z,24.17
2023-04-28T13:17:01.598Z,24.11
2023-04-28T13:18:03.617Z,24.23
2023-04-28T13:19:09.520Z,24.50
2023-04-28T13:20:11.955Z,24.59
2023-04-28T13:21:14.726Z,24.56
2023-04-28T13:22:16.716Z,24.44
2023-04-28T13:23:19.563Z,24.44
2023-04-28T13:24:22.430Z,24.49
2023-04-28T13:25:24.195Z,24.38
2023-04-28T13:26:28.351Z,24.36
2023-04-28T13:27:30.543Z,24.41
2023-04-28T13:28:33.308Z,24.40
2023-04-28T13:29:35.859Z,24.38
2023-04-28T13:30:38.570Z,24.26
2023-04-28T13:31:40.483Z,24.21
2023-04-28T13:32:43.263Z,24.29
2023-04-28T13:33:45.468Z,24.29
2023-04-28T13:34:48.437Z,24.27
2023-04-28T13:35:50.517Z,24.34
2023-04-28T13:36:54.352Z,24.43
2023-04-28T13:38:01.635Z,24.51
2023-04-28T13:39:06.237Z,24.41
2023-04-28T13:40:09.407Z,24.39
2023-04-28T13:41:12.102Z,24.34
2023-04-28T13:42:16.102Z,24.15
2023-04-28T13:43:18.842Z,24.02
2023-04-28T13:44:21.189Z,24.08
2023-04-28T13:45:24.039Z,24.17
2023-04-28T13:46:25.806Z,24.10
2023-04-28T13:47:28.986Z,24.00
2023-04-28T13:48:30.806Z,23.93
2023-04-28T13:49:33.580Z,23.80
2023-04-28T13:50:36.177Z,23.67
2023-04-28T13:51:40.076Z,23.56
2023-04-28T13:52:41.865Z,23.50
2023-04-28T13:53:44.585Z,23.41
2023-04-28T13:54:46.792Z,23.42
2023-04-28T13:55:51.609Z,23.48
2023-04-28T13:56:55.078Z,23.41
2023-04-28T13:58:02.598Z,23.31